Time,TemperatureF,DewpointF,PressureIn,WindDirection,WindDirectionDegrees,WindSpeedMPH,WindSpeedGustMPH,Humidity,HourlyPrecipIn,Conditions,Clouds,dailyrainin,SoftwareType,DateUTC
2013-12-25 00:03:00,19.3,17.1,30.26,West,270,6.0,21.0,91,0.00,,,0.00,Weather View 32 v70,2013-12-25 06:03:00,
2013-12-25 00:08:00,19.3,17.4,30.26,WNW,292,6.0,21.0,92,0.00,,,0.00,Weather View 32 v70,2013-12-25 06:08:00,
2013-12-25 00:13:00,19.4,17.5,30.26,WNW,292,5.0,21.0,92,0.00,,,0.00,Weather View 32 v70,2013-12-25 06:13:00,
2013-12-25 00:18:00,19.4,17.2,30.26,WNW,292,2.0,21.0,91,0.00,,,0.00,Weather View 32 v70,2013-12-25 06:18:00,
2013-12-25 00:23:00,19.4,17.5,30.26,WNW,292,3.0,21.0,92,0.00,,,0.00,Weather View 32 v70,2013-12-25 06:23:00,
2013-12-25 00:28:00,19.4,17.5,30.26,WNW,292,2.0,17.0,92,0.00,,,0.00,Weather View 32 v70,2013-12-25 06:28:00,
2013-12-25 00:33:00,19.4,17.5,30.25,WNW,292,2.0,12.0,92,0.00,,,0.00,Weather View 32 v70,2013-12-25 06:33:00,
2013-12-25 00:38:00,19.4,17.5,30.25,WNW,292,0.0,12.0,92,0.00,,,0.00,Weather View 32 v70,2013-12-25 06:38:00,
2013-12-25 00:43:00,19.4,17.5,30.25,WNW,292,1.0,12.0,92,0.00,,,0.00,Weather View 32 v70,2013-12-25 06:43:00,
2013-12-25 00:48:00,19.5,17.6,30.25,WNW,292,2.0,12.0,92,0.00,,,0.00,Weather View 32 v70,2013-12-25 06:48:00,
2013-12-25 00:53:00,19.5,17.6,30.25,WSW,247,2.0,11.0,92,0.00,,,0.00,Weather View 32 v70,2013-12-25 06:53:00,
2013-12-25 00:58:00,19.5,17.6,30.25,WSW,247,2.0,9.0,92,0.00,,,0.00,Weather View 32 v70,2013-12-25 06:58:00,
2013-12-25 01:03:00,19.5,17.6,30.25,WSW,247,1.0,9.0,92,0.00,,,0.00,Weather View 32 v70,2013-12-25 07:03:00,
2013-12-25 01:08:00,19.6,17.7,30.25,WSW,247,2.0,7.0,92,0.00,,,0.00,Weather View 32 v70,2013-12-25 07:08:00,
2013-12-25 01:13:00,19.6,17.7,30.25,WSW,247,1.0,7.0,92,0.00,,,0.00,Weather View 32 v70,2013-12-25 07:13:00,
2013-12-25 01:18:00,19.7,17.8,30.25,WSW,247,0.0,6.0,92,0.00,,,0.00,Weather View 32 v70,2013-12-25 07:18:00,
2013-12-25 01:20:00,19.7,17.8,30.25,WSW,247,1.0,6.0,92,0.00,,,0.00,Weather View 32 v70,2013-12-25 07:20:00,
2013-12-25 01:25:00,19.7,17.8,30.25,WSW,247,0.0,5.0,92,0.00,,,0.00,Weather View 32 v70,2013-12-25 07:25:00,
2013-12-25 01:31:00,19.8,17.9,30.24,WSW,247,0.0,3.0,92,0.00,,,0.00,Weather View 32 v70,2013-12-25 07:31:00,
2013-12-25 01:36:00,19.9,18.0,30.24,WSW,247,0.0,2.0,92,0.00,,,0.00,Weather View 32 v70,2013-12-25 07:36:00,
2013-12-25 01:41:00,19.9,18.0,30.24,WSW,247,0.0,2.0,92,0.00,,,0.00,Weather View 32 v70,2013-12-25 07:41:00,
2013-12-25 01:46:00,19.9,18.0,30.24,WSW,247,0.0,2.0,92,0.00,,,0.00,Weather View 32 v70,2013-12-25 07:46:00,
2013-12-25 01:51:00,19.9,18.0,30.24,WSW,247,0.0,2.0,92,0.00,,,0.00,Weather View 32 v70,2013-12-25 07:51:00,
2013-12-25 01:56:00,20.0,18.1,30.24,WSW,247,0.0,2.0,92,0.00,,,0.00,Weather View 32 v70,2013-12-25 07:56:00,
2013-12-25 02:01:00,20.0,17.8,30.24,WSW,247,0.0,2.0,91,0.00,,,0.00,Weather View 32 v70,2013-12-25 08:01:00,
2013-12-25 02:06:00,20.0,18.1,30.24,WSW,247,0.0,2.0,92,0.00,,,0.00,Weather View 32 v70,2013-12-25 08:06:00,
2013-12-25 02:11:00,20.0,18.1,30.23,SE,135,1.0,2.0,92,0.00,,,0.00,Weather View 32 v70,2013-12-25 08:11:00,
2013-12-25 02:16:00,19.9,18.0,30.23,ESE,112,1.0,2.0,92,0.00,,,0.00,Weather View 32 v70,2013-12-25 08:16:00,
2013-12-25 02:21:00,19.9,18.0,30.23,ESE,112,0.0,2.0,92,0.00,,,0.00,Weather View 32 v70,2013-12-25 08:21:00,
2013-12-25 02:26:00,19.9,18.0,30.24,ESE,112,0.0,2.0,92,0.00,,,0.00,Weather View 32 v70,2013-12-25 08:26:00,
2013-12-25 02:31:00,19.9,18.0,30.24,ESE,112,0.0,2.0,92,0.00,,,0.00,Weather View 32 v70,2013-12-25 08:31:00,
2013-12-25 02:36:00,19.9,18.0,30.25,ESE,112,1.0,2.0,92,0.00,,,0.00,Weather View 32 v70,2013-12-25 08:36:00,
2013-12-25 02:41:00,20.1,18.2,30.24,ESE,112,1.0,2.0,92,0.00,,,0.00,Weather View 32 v70,2013-12-25 08:41:00,
2013-12-25 02:46:00,20.1,18.2,30.24,ESE,112,0.0,2.0,92,0.00,,,0.00,Weather View 32 v70,2013-12-25 08:46:00,
2013-12-25 02:51:00,20.1,18.2,30.25,ESE,112,0.0,2.0,92,0.00,,,0.00,Weather View 32 v70,2013-12-25 08:51:00,
2013-12-25 02:56:00,20.0,18.1,30.24,ESE,112,2.0,2.0,92,0.00,,,0.00,Weather View 32 v70,2013-12-25 08:56:00,
2013-12-25 03:01:00,19.9,18.0,30.24,ESE,112,0.0,2.0,92,0.00,,,0.00,Weather View 32 v70,2013-12-25 09:01:00,
2013-12-25 03:06:00,19.6,17.7,30.24,ESE,112,0.0,2.0,92,0.00,,,0.00,Weather View 32 v70,2013-12-25 09:06:00,
2013-12-25 03:11:00,19.4,17.5,30.25,ESE,112,1.0,2.0,92,0.00,,,0.00,Weather View 32 v70,2013-12-25 09:11:00,
2013-12-25 03:16:00,19.1,17.4,30.24,ESE,112,2.0,3.0,93,0.00,,,0.00,Weather View 32 v70,2013-12-25 09:16:00,
2013-12-25 03:21:00,19.0,17.3,30.24,SE,135,2.0,4.0,93,0.00,,,0.00,Weather View 32 v70,2013-12-25 09:21:00,
2013-12-25 03:26:00,18.9,17.2,30.24,SSE,157,2.0,4.0,93,0.00,,,0.00,Weather View 32 v70,2013-12-25 09:26:00,
2013-12-25 03:31:00,18.9,17.2,30.24,South,180,2.0,4.0,93,0.00,,,0.00,Weather View 32 v70,2013-12-25 09:31:00,
2013-12-25 03:36:00,19.2,17.5,30.24,South,180,2.0,4.0,93,0.00,,,0.00,Weather View 32 v70,2013-12-25 09:36:00,
2013-12-25 03:41:00,19.4,17.7,30.23,SSE,157,2.0,4.0,93,0.00,,,0.00,Weather View 32 v70,2013-12-25 09:41:00,
2013-12-25 03:46:00,19.5,17.8,30.23,SE,135,1.0,4.0,93,0.00,,,0.00,Weather View 32 v70,2013-12-25 09:46:00,
2013-12-25 03:51:00,19.4,17.7,30.23,SE,135,1.0,4.0,93,0.00,,,0.00,Weather View 32 v70,2013-12-25 09:51:00,
2013-12-25 03:56:00,19.1,17.4,30.23,SE,135,1.0,4.0,93,0.00,,,0.00,Weather View 32 v70,2013-12-25 09:56:00,
2013-12-25 04:01:00,19.1,17.4,30.23,SE,135,2.0,4.0,93,0.00,,,0.00,Weather View 32 v70,2013-12-25 10:01:00,
2013-12-25 04:06:00,19.0,17.3,30.23,SE,135,2.0,4.0,93,0.00,,,0.00,Weather View 32 v70,2013-12-25 10:06:00,
2013-12-25 04:11:00,18.9,17.2,30.23,SE,135,2.0,4.0,93,0.00,,,0.00,Weather View 32 v70,2013-12-25 10:11:00,
2013-12-25 04:16:00,18.7,17.0,30.23,ESE,112,3.0,4.0,93,0.00,,,0.00,Weather View 32 v70,2013-12-25 10:16:00,
2013-12-25 04:21:00,18.6,16.9,30.22,ESE,112,4.0,4.0,93,0.00,,,0.00,Weather View 32 v70,2013-12-25 10:21:00,
2013-12-25 04:26:00,18.5,16.8,30.22,ESE,112,5.0,6.0,93,0.00,,,0.00,Weather View 32 v70,2013-12-25 10:26:00,
2013-12-25 04:31:00,18.3,16.6,30.21,SE,135,4.0,7.0,93,0.00,,,0.00,Weather View 32 v70,2013-12-25 10:31:00,
2013-12-25 04:36:00,18.0,16.3,30.21,SE,135,4.0,7.0,93,0.00,,,0.00,Weather View 32 v70,2013-12-25 10:36:00,
2013-12-25 04:41:00,17.9,16.2,30.20,SE,135,5.0,7.0,93,0.00,,,0.00,Weather View 32 v70,2013-12-25 10:41:00,
2013-12-25 04:46:00,17.9,16.2,30.20,SE,135,6.0,7.0,93,0.00,,,0.00,Weather View 32 v70,2013-12-25 10:46:00,
2013-12-25 04:51:00,17.8,16.1,30.20,SE,135,2.0,7.0,93,0.00,,,0.00,Weather View 32 v70,2013-12-25 10:51:00,
2013-12-25 04:56:00,17.6,15.9,30.20,SE,135,4.0,7.0,93,0.00,,,0.00,Weather View 32 v70,2013-12-25 10:56:00,
2013-12-25 05:01:00,17.5,15.8,30.19,SE,135,1.0,7.0,93,0.00,,,0.00,Weather View 32 v70,2013-12-25 11:01:00,
2013-12-25 05:06:00,17.5,15.8,30.20,SSE,157,2.0,7.0,93,0.00,,,0.00,Weather View 32 v70,2013-12-25 11:06:00,
2013-12-25 05:11:00,17.4,15.7,30.20,SSE,157,3.0,7.0,93,0.00,,,0.00,Weather View 32 v70,2013-12-25 11:11:00,
2013-12-25 05:16:00,17.3,15.6,30.19,SSE,157,1.0,7.0,93,0.00,,,0.00,Weather View 32 v70,2013-12-25 11:16:00,
2013-12-25 05:21:00,17.5,15.8,30.20,ESE,112,4.0,7.0,93,0.00,,,0.00,Weather View 32 v70,2013-12-25 11:21:00,
2013-12-25 05:26:00,17.6,15.9,30.19,SE,135,4.0,7.0,93,0.00,,,0.00,Weather View 32 v70,2013-12-25 11:26:00,
2013-12-25 05:31:00,17.6,15.9,30.20,SE,135,3.0,7.0,93,0.00,,,0.00,Weather View 32 v70,2013-12-25 11:31:00,
2013-12-25 05:36:00,17.7,16.0,30.19,ESE,112,5.0,7.0,93,0.00,,,0.00,Weather View 32 v70,2013-12-25 11:36:00,
2013-12-25 05:41:00,17.9,16.2,30.19,ESE,112,6.0,9.0,93,0.00,,,0.00,Weather View 32 v70,2013-12-25 11:41:00,
2013-12-25 05:46:00,17.9,16.2,30.18,SE,135,4.0,9.0,93,0.00,,,0.00,Weather View 32 v70,2013-12-25 11:46:00,
2013-12-25 05:51:00,17.9,16.2,30.18,South,180,3.0,9.0,93,0.00,,,0.00,Weather View 32 v70,2013-12-25 11:51:00,
2013-12-25 05:56:00,17.9,16.2,30.18,SSE,157,1.0,9.0,93,0.00,,,0.00,Weather View 32 v70,2013-12-25 11:56:00,
2013-12-25 06:01:00,17.9,16.2,30.19,SE,135,3.0,9.0,93,0.00,,,0.00,Weather View 32 v70,2013-12-25 12:01:00,
2013-12-25 06:06:00,17.9,16.2,30.18,ESE,112,4.0,9.0,93,0.00,,,0.00,Weather View 32 v70,2013-12-25 12:06:00,
2013-12-25 06:11:00,17.9,16.2,30.18,ESE,112,2.0,9.0,93,0.00,,,0.00,Weather View 32 v70,2013-12-25 12:11:00,
2013-12-25 06:16:00,17.9,16.2,30.18,SE,135,2.0,9.0,93,0.00,,,0.00,Weather View 32 v70,2013-12-25 12:16:00,
2013-12-25 06:21:00,17.8,16.1,30.18,ESE,112,3.0,9.0,93,0.00,,,0.00,Weather View 32 v70,2013-12-25 12:21:00,
2013-12-25 06:26:00,17.7,16.0,30.18,SE,135,2.0,9.0,93,0.00,,,0.00,Weather View 32 v70,2013-12-25 12:26:00,
2013-12-25 06:31:00,17.6,15.9,30.18,ESE,112,2.0,9.0,93,0.00,,,0.00,Weather View 32 v70,2013-12-25 12:31:00,
2013-12-25 06:36:00,17.5,15.8,30.18,SE,135,2.0,9.0,93,0.00,,,0.00,Weather View 32 v70,2013-12-25 12:36:00,
2013-12-25 06:41:00,17.5,15.8,30.18,ESE,112,1.0,9.0,93,0.00,,,0.00,Weather View 32 v70,2013-12-25 12:41:00,
2013-12-25 06:46:00,17.5,15.8,30.18,East,90,2.0,6.0,93,0.00,,,0.00,Weather View 32 v70,2013-12-25 12:46:00,
2013-12-25 06:51:00,17.4,15.7,30.18,East,90,2.0,6.0,93,0.00,,,0.00,Weather View 32 v70,2013-12-25 12:51:00,
2013-12-25 06:56:00,17.3,15.6,30.18,East,90,1.0,6.0,93,0.00,,,0.00,Weather View 32 v70,2013-12-25 12:56:00,
2013-12-25 07:01:00,17.4,15.7,30.18,East,90,3.0,6.0,93,0.00,,,0.00,Weather View 32 v70,2013-12-25 13:01:00,
2013-12-25 07:06:00,17.5,15.8,30.18,East,90,2.0,6.0,93,0.00,,,0.00,Weather View 32 v70,2013-12-25 13:06:00,
2013-12-25 07:11:00,17.5,15.8,30.18,ESE,112,2.0,6.0,93,0.00,,,0.00,Weather View 32 v70,2013-12-25 13:11:00,
2013-12-25 07:16:00,17.8,16.1,30.18,SE,135,1.0,6.0,93,0.00,,,0.00,Weather View 32 v70,2013-12-25 13:16:00,
2013-12-25 07:21:00,18.0,16.3,30.18,ESE,112,2.0,6.0,93,0.00,,,0.00,Weather View 32 v70,2013-12-25 13:21:00,
2013-12-25 07:26:00,18.0,16.3,30.18,ESE,112,1.0,5.0,93,0.00,,,0.00,Weather View 32 v70,2013-12-25 13:26:00,
2013-12-25 07:31:00,17.9,16.2,30.18,ESE,112,2.0,5.0,93,0.00,,,0.00,Weather View 32 v70,2013-12-25 13:31:00,
2013-12-25 07:36:00,17.8,16.1,30.18,ESE,112,1.0,5.0,93,0.00,,,0.00,Weather View 32 v70,2013-12-25 13:36:00,
2013-12-25 07:41:00,17.7,16.0,30.18,ESE,112,2.0,5.0,93,0.00,,,0.00,Weather View 32 v70,2013-12-25 13:41:00,
2013-12-25 07:46:00,17.9,16.2,30.18,ESE,112,2.0,5.0,93,0.00,,,0.00,Weather View 32 v70,2013-12-25 13:46:00,
2013-12-25 07:51:00,18.1,16.4,30.18,ESE,112,2.0,5.0,93,0.00,,,0.00,Weather View 32 v70,2013-12-25 13:51:00,
2013-12-25 07:56:00,18.4,16.7,30.18,ESE,112,2.0,5.0,93,0.00,,,0.00,Weather View 32 v70,2013-12-25 13:56:00,
2013-12-25 08:01:00,18.3,16.6,30.18,ESE,112,0.0,5.0,93,0.00,,,0.00,Weather View 32 v70,2013-12-25 14:01:00,
2013-12-25 08:06:00,18.2,16.5,30.18,ESE,112,2.0,5.0,93,0.00,,,0.00,Weather View 32 v70,2013-12-25 14:06:00,
2013-12-25 08:11:00,18.0,16.3,30.18,ESE,112,2.0,5.0,93,0.00,,,0.00,Weather View 32 v70,2013-12-25 14:11:00,
2013-12-25 08:16:00,18.4,16.7,30.18,ESE,112,2.0,4.0,93,0.00,,,0.00,Weather View 32 v70,2013-12-25 14:16:00,
2013-12-25 08:21:00,18.9,17.2,30.19,ESE,112,0.0,4.0,93,0.00,,,0.00,Weather View 32 v70,2013-12-25 14:21:00,
2013-12-25 08:26:00,19.7,18.0,30.19,WSW,247,1.0,4.0,93,0.00,,,0.00,Weather View 32 v70,2013-12-25 14:26:00,
2013-12-25 08:31:00,20.8,19.1,30.19,WSW,247,4.0,5.0,93,0.00,,,0.00,Weather View 32 v70,2013-12-25 14:31:00,
2013-12-25 08:36:00,21.3,19.3,30.19,West,270,3.0,6.0,92,0.00,,,0.00,Weather View 32 v70,2013-12-25 14:36:00,
2013-12-25 08:41:00,21.9,19.9,30.18,WSW,247,4.0,6.0,92,0.00,,,0.00,Weather View 32 v70,2013-12-25 14:41:00,
2013-12-25 08:46:00,22.9,20.7,30.19,West,270,6.0,7.0,91,0.00,,,0.00,Weather View 32 v70,2013-12-25 14:46:00,
2013-12-25 08:51:00,24.7,21.9,30.19,West,270,6.0,9.0,89,0.00,,,0.00,Weather View 32 v70,2013-12-25 14:51:00,
2013-12-25 08:56:00,27.0,23.4,30.19,West,270,4.0,14.0,86,0.00,,,0.00,Weather View 32 v70,2013-12-25 14:56:00,
2013-12-25 09:01:00,28.3,23.8,30.18,WNW,292,7.0,14.0,83,0.00,,,0.00,Weather View 32 v70,2013-12-25 15:01:00,
2013-12-25 09:06:00,29.3,24.8,30.18,West,270,7.0,14.0,83,0.00,,,0.00,Weather View 32 v70,2013-12-25 15:06:00,
2013-12-25 09:11:00,30.3,25.5,30.18,West,270,7.0,14.0,82,0.00,,,0.00,Weather View 32 v70,2013-12-25 15:11:00,
2013-12-25 09:16:00,31.7,26.8,30.19,West,270,12.0,14.0,82,0.00,,,0.00,Weather View 32 v70,2013-12-25 15:16:00,
2013-12-25 09:21:00,32.7,27.5,30.19,NW,315,5.0,24.0,81,0.00,,,0.00,Weather View 32 v70,2013-12-25 15:21:00,
2013-12-25 09:26:00,33.5,28.0,30.18,West,270,7.0,24.0,80,0.00,,,0.00,Weather View 32 v70,2013-12-25 15:26:00,
2013-12-25 09:31:00,33.6,28.1,30.20,NW,315,7.0,24.0,80,0.00,,,0.00,Weather View 32 v70,2013-12-25 15:31:00,
2013-12-25 09:36:00,33.7,28.2,30.20,West,270,16.0,24.0,80,0.00,,,0.00,Weather View 32 v70,2013-12-25 15:36:00,
2013-12-25 09:41:00,33.8,28.6,30.20,WNW,292,16.0,27.0,81,0.00,,,0.00,Weather View 32 v70,2013-12-25 15:41:00,
2013-12-25 09:46:00,33.7,28.8,30.20,West,270,12.0,27.0,82,0.00,,,0.00,Weather View 32 v70,2013-12-25 15:46:00,
2013-12-25 09:51:00,33.7,28.8,30.21,NW,315,22.0,27.0,82,0.00,,,0.00,Weather View 32 v70,2013-12-25 15:51:00,
2013-12-25 09:56:00,33.8,29.5,30.20,West,270,13.0,27.0,84,0.00,,,0.00,Weather View 32 v70,2013-12-25 15:56:00,
2013-12-25 10:01:00,33.8,29.5,30.22,WSW,247,3.0,27.0,84,0.00,,,0.00,Weather View 32 v70,2013-12-25 16:01:00,
2013-12-25 10:06:00,33.9,29.9,30.22,WNW,292,17.0,27.0,85,0.00,,,0.00,Weather View 32 v70,2013-12-25 16:06:00,
2013-12-25 10:11:00,33.9,29.9,30.21,WSW,247,12.0,29.0,85,0.00,,,0.00,Weather View 32 v70,2013-12-25 16:11:00,
2013-12-25 10:16:00,33.9,29.9,30.23,NW,315,19.0,29.0,85,0.00,,,0.00,Weather View 32 v70,2013-12-25 16:16:00,
2013-12-25 10:21:00,34.1,30.4,30.22,NW,315,21.0,29.0,86,0.00,,,0.00,Weather View 32 v70,2013-12-25 16:21:00,
2013-12-25 10:26:00,34.4,30.6,30.23,NW,315,19.0,33.0,86,0.00,,,0.00,Weather View 32 v70,2013-12-25 16:26:00,
2013-12-25 10:31:00,33.9,31.0,30.22,West,270,13.0,33.0,89,0.00,,,0.00,Weather View 32 v70,2013-12-25 16:31:00,
2013-12-25 10:36:00,34.1,30.9,30.24,NW,315,16.0,33.0,88,0.00,,,0.00,Weather View 32 v70,2013-12-25 16:36:00,
2013-12-25 10:41:00,34.2,30.7,30.24,NW,315,29.0,33.0,87,0.00,,,0.00,Weather View 32 v70,2013-12-25 16:41:00,
2013-12-25 10:46:00,34.4,30.4,30.24,WNW,292,22.0,34.0,85,0.00,,,0.00,Weather View 32 v70,2013-12-25 16:46:00,
2013-12-25 10:51:00,34.6,30.3,30.24,NW,315,26.0,34.0,84,0.00,,,0.00,Weather View 32 v70,2013-12-25 16:51:00,
2013-12-25 10:56:00,34.7,30.4,30.24,NW,315,23.0,34.0,84,0.00,,,0.00,Weather View 32 v70,2013-12-25 16:56:00,
2013-12-25 11:01:00,34.7,30.4,30.24,West,270,4.0,34.0,84,0.00,,,0.00,Weather View 32 v70,2013-12-25 17:01:00,
2013-12-25 11:06:00,34.6,29.7,30.26,NW,315,23.0,36.0,82,0.00,,,0.00,Weather View 32 v70,2013-12-25 17:06:00,
2013-12-25 11:11:00,34.9,30.0,30.25,WNW,292,17.0,36.0,82,0.00,,,0.00,Weather View 32 v70,2013-12-25 17:11:00,
2013-12-25 11:16:00,35.1,29.5,30.26,NW,315,21.0,36.0,80,0.00,,,0.00,Weather View 32 v70,2013-12-25 17:16:00,
2013-12-25 11:21:00,35.3,29.7,30.26,WNW,292,17.0,36.0,80,0.00,,,0.00,Weather View 32 v70,2013-12-25 17:21:00,
2013-12-25 11:26:00,35.5,29.3,30.26,WNW,292,14.0,36.0,78,0.00,,,0.00,Weather View 32 v70,2013-12-25 17:26:00,
2013-12-25 11:31:00,35.4,28.9,30.25,NW,315,22.0,36.0,77,0.00,,,0.00,Weather View 32 v70,2013-12-25 17:31:00,
2013-12-25 11:36:00,35.5,29.0,30.26,NW,315,14.0,36.0,77,0.00,,,0.00,Weather View 32 v70,2013-12-25 17:36:00,
2013-12-25 11:41:00,35.6,28.8,30.26,NW,315,21.0,36.0,76,0.00,,,0.00,Weather View 32 v70,2013-12-25 17:41:00,
2013-12-25 11:46:00,35.7,28.9,30.26,WNW,292,24.0,36.0,76,0.00,,,0.00,Weather View 32 v70,2013-12-25 17:46:00,
2013-12-25 11:51:00,35.5,29.0,30.26,NW,315,14.0,36.0,77,0.00,,,0.00,Weather View 32 v70,2013-12-25 17:51:00,
2013-12-25 11:56:00,35.4,28.6,30.28,NW,315,16.0,36.0,76,0.00,,,0.00,Weather View 32 v70,2013-12-25 17:56:00,
2013-12-25 12:01:00,35.5,28.4,30.27,WNW,292,15.0,36.0,75,0.00,,,0.00,Weather View 32 v70,2013-12-25 18:01:00,
2013-12-25 12:06:00,35.4,27.9,30.26,NW,315,17.0,35.0,74,0.00,,,0.00,Weather View 32 v70,2013-12-25 18:06:00,
2013-12-25 12:11:00,35.2,27.7,30.27,West,270,11.0,35.0,74,0.00,,,0.00,Weather View 32 v70,2013-12-25 18:11:00,
2013-12-25 12:16:00,34.9,27.8,30.27,WNW,292,14.0,33.0,75,0.01,,,0.00,Weather View 32 v70,2013-12-25 18:16:00,
2013-12-25 12:21:00,35.4,27.3,30.26,NW,315,18.0,33.0,72,0.00,,,0.00,Weather View 32 v70,2013-12-25 18:21:00,
2013-12-25 12:26:00,35.2,26.0,30.26,West,270,14.0,33.0,69,0.00,,,0.00,Weather View 32 v70,2013-12-25 18:26:00,
2013-12-25 12:31:00,35.1,26.6,30.26,WNW,292,15.0,33.0,71,0.00,,,0.00,Weather View 32 v70,2013-12-25 18:31:00,
2013-12-25 12:37:00,35.2,26.4,30.27,NW,315,7.0,33.0,70,0.00,,,0.00,Weather View 32 v70,2013-12-25 18:37:00,
2013-12-25 12:42:00,35.1,27.3,30.27,West,270,8.0,33.0,73,0.00,,,0.00,Weather View 32 v70,2013-12-25 18:42:00,
2013-12-25 12:47:00,34.8,27.7,30.27,WNW,292,9.0,33.0,75,0.00,,,0.00,Weather View 32 v70,2013-12-25 18:47:00,
2013-12-25 12:52:00,34.9,27.8,30.26,WNW,292,14.0,29.0,75,0.00,,,0.00,Weather View 32 v70,2013-12-25 18:52:00,
2013-12-25 12:57:00,34.8,27.7,30.26,West,270,10.0,29.0,75,0.00,,,0.00,Weather View 32 v70,2013-12-25 18:57:00,
2013-12-25 13:02:00,34.8,27.7,30.26,WNW,292,12.0,29.0,75,0.00,,,0.00,Weather View 32 v70,2013-12-25 19:02:00,
2013-12-25 13:07:00,34.9,27.8,30.26,WNW,292,18.0,29.0,75,0.00,,,0.00,Weather View 32 v70,2013-12-25 19:07:00,
2013-12-25 13:12:00,34.9,27.8,30.26,West,270,11.0,29.0,75,0.00,,,0.00,Weather View 32 v70,2013-12-25 19:12:00,
2013-12-25 13:17:00,34.9,28.1,30.26,WNW,292,17.0,29.0,76,0.00,,,0.00,Weather View 32 v70,2013-12-25 19:17:00,
2013-12-25 13:22:00,34.8,28.0,30.26,West,270,10.0,29.0,76,0.00,,,0.00,Weather View 32 v70,2013-12-25 19:22:00,
2013-12-25 13:27:00,34.9,28.1,30.26,West,270,11.0,28.0,76,0.00,,,0.00,Weather View 32 v70,2013-12-25 19:27:00,
2013-12-25 13:32:00,34.9,28.4,30.27,West,270,13.0,27.0,77,0.00,,,0.00,Weather View 32 v70,2013-12-25 19:32:00,
2013-12-25 13:37:00,34.8,28.6,30.26,West,270,13.0,27.0,78,0.00,,,0.00,Weather View 32 v70,2013-12-25 19:37:00,
2013-12-25 13:42:00,34.7,28.5,30.26,West,270,15.0,27.0,78,0.00,,,0.00,Weather View 32 v70,2013-12-25 19:42:00,
2013-12-25 13:44:00,34.5,28.3,30.26,West,270,8.0,27.0,78,0.00,,,0.00,Weather View 32 v70,2013-12-25 19:44:00,
2013-12-25 13:49:00,34.5,28.7,30.27,WNW,292,21.0,27.0,79,0.00,,,0.00,Weather View 32 v70,2013-12-25 19:49:00,
2013-12-25 13:54:00,34.5,28.7,30.26,WNW,292,9.0,27.0,79,0.00,,,0.00,Weather View 32 v70,2013-12-25 19:54:00,
2013-12-25 13:59:00,34.7,28.5,30.26,WNW,292,14.0,27.0,78,0.00,,,0.00,Weather View 32 v70,2013-12-25 19:59:00,
2013-12-25 14:04:00,34.7,28.9,30.27,NW,315,15.0,27.0,79,0.00,,,0.00,Weather View 32 v70,2013-12-25 20:04:00,
2013-12-25 14:09:00,33.9,28.4,30.27,NW,315,16.0,27.0,80,0.00,,,0.00,Weather View 32 v70,2013-12-25 20:09:00,
2013-12-25 14:14:00,33.8,27.7,30.27,WNW,292,26.0,27.0,78,0.00,,,0.00,Weather View 32 v70,2013-12-25 20:14:00,
2013-12-25 14:19:00,33.6,27.5,30.26,West,270,17.0,29.0,78,0.00,,,0.00,Weather View 32 v70,2013-12-25 20:19:00,
2013-12-25 14:24:00,32.7,26.0,30.28,NNW,337,19.0,33.0,76,0.00,,,0.00,Weather View 32 v70,2013-12-25 20:24:00,
2013-12-25 14:29:00,32.1,24.1,30.29,WNW,292,19.0,33.0,72,0.00,,,0.00,Weather View 32 v70,2013-12-25 20:29:00,
2013-12-25 14:34:00,31.8,22.4,30.28,NW,315,11.0,33.0,68,0.00,,,0.00,Weather View 32 v70,2013-12-25 20:34:00,
2013-12-25 14:39:00,31.7,22.0,30.30,West,270,14.0,33.0,67,0.00,,,0.00,Weather View 32 v70,2013-12-25 20:39:00,
2013-12-25 14:44:00,31.5,20.0,30.29,West,270,17.0,33.0,62,0.00,,,0.00,Weather View 32 v70,2013-12-25 20:44:00,
2013-12-25 14:49:00,31.3,19.8,30.30,WNW,292,18.0,33.0,62,0.00,,,0.00,Weather View 32 v70,2013-12-25 20:49:00,
2013-12-25 14:54:00,31.1,19.2,30.29,WNW,292,12.0,33.0,61,0.00,,,0.00,Weather View 32 v70,2013-12-25 20:54:00,
2013-12-25 14:59:00,31.3,19.4,30.31,WNW,292,12.0,33.0,61,0.00,,,0.00,Weather View 32 v70,2013-12-25 20:59:00,
2013-12-25 15:04:00,31.1,19.2,30.30,WNW,292,12.0,33.0,61,0.00,,,0.00,Weather View 32 v70,2013-12-25 21:04:00,
2013-12-25 15:09:00,31.2,19.7,30.31,NW,315,14.0,33.0,62,0.00,,,0.00,Weather View 32 v70,2013-12-25 21:09:00,
2013-12-25 15:14:00,31.5,19.2,30.31,WNW,292,10.0,33.0,60,0.00,,,0.00,Weather View 32 v70,2013-12-25 21:14:00,
2013-12-25 15:19:00,31.9,18.4,30.31,WNW,292,11.0,33.0,57,0.00,,,0.00,Weather View 32 v70,2013-12-25 21:19:00,
2013-12-25 15:24:00,31.9,18.0,30.30,West,270,15.0,33.0,56,0.00,,,0.00,Weather View 32 v70,2013-12-25 21:24:00,
2013-12-25 15:29:00,32.0,18.5,30.29,WNW,292,14.0,33.0,57,0.00,,,0.00,Weather View 32 v70,2013-12-25 21:29:00,
2013-12-25 15:34:00,31.9,18.0,30.30,NW,315,15.0,33.0,56,0.00,,,0.00,Weather View 32 v70,2013-12-25 21:34:00,
2013-12-25 15:39:00,31.9,18.4,30.30,WNW,292,4.0,33.0,57,0.00,,,0.00,Weather View 32 v70,2013-12-25 21:39:00,
2013-12-25 15:44:00,31.9,18.0,30.29,WNW,292,14.0,30.0,56,0.00,,,0.00,Weather View 32 v70,2013-12-25 21:44:00,
2013-12-25 15:49:00,31.8,17.5,30.31,WNW,292,12.0,30.0,55,0.00,,,0.00,Weather View 32 v70,2013-12-25 21:49:00,
2013-12-25 15:54:00,31.7,17.8,30.31,WNW,292,17.0,30.0,56,0.00,,,0.00,Weather View 32 v70,2013-12-25 21:54:00,
2013-12-25 15:59:00,31.7,17.4,30.31,NW,315,15.0,27.0,55,0.00,,,0.00,Weather View 32 v70,2013-12-25 21:59:00,
2013-12-25 16:04:00,31.7,17.4,30.31,WNW,292,9.0,27.0,55,0.00,,,0.00,Weather View 32 v70,2013-12-25 22:04:00,
2013-12-25 16:09:00,31.9,17.6,30.31,NW,315,14.0,27.0,55,0.00,,,0.00,Weather View 32 v70,2013-12-25 22:09:00,
2013-12-25 16:14:00,31.7,17.8,30.32,NW,315,14.0,27.0,56,0.00,,,0.00,Weather View 32 v70,2013-12-25 22:14:00,
2013-12-25 16:19:00,31.5,18.0,30.32,WNW,292,9.0,27.0,57,0.00,,,0.00,Weather View 32 v70,2013-12-25 22:19:00,
2013-12-25 16:24:00,31.3,18.6,30.32,West,270,4.0,24.0,59,0.00,,,0.00,Weather View 32 v70,2013-12-25 22:24:00,
2013-12-25 16:29:00,31.0,18.7,30.32,West,270,7.0,24.0,60,0.00,,,0.00,Weather View 32 v70,2013-12-25 22:29:00,
2013-12-25 16:34:00,30.9,18.6,30.32,WNW,292,7.0,24.0,60,0.00,,,0.00,Weather View 32 v70,2013-12-25 22:34:00,
2013-12-25 16:39:00,30.5,18.3,30.32,WNW,292,7.0,24.0,60,0.00,,,0.00,Weather View 32 v70,2013-12-25 22:39:00,
2013-12-25 16:44:00,30.2,18.4,30.32,WNW,292,6.0,24.0,61,0.00,,,0.00,Weather View 32 v70,2013-12-25 22:44:00,
2013-12-25 16:49:00,29.9,18.5,30.31,West,270,5.0,24.0,62,0.00,,,0.00,Weather View 32 v70,2013-12-25 22:49:00,
2013-12-25 16:54:00,29.7,18.6,30.31,WNW,292,5.0,21.0,63,0.00,,,0.00,Weather View 32 v70,2013-12-25 22:54:00,
2013-12-25 16:59:00,29.2,18.5,30.31,West,270,4.0,21.0,64,0.00,,,0.00,Weather View 32 v70,2013-12-25 22:59:00,
2013-12-25 17:04:00,28.9,18.6,30.31,West,270,4.0,19.0,65,0.00,,,0.00,Weather View 32 v70,2013-12-25 23:04:00,
2013-12-25 17:09:00,28.6,18.7,30.31,West,270,4.0,19.0,66,0.00,,,0.00,Weather View 32 v70,2013-12-25 23:09:00,
2013-12-25 17:14:00,28.3,18.7,30.31,West,270,4.0,19.0,67,0.00,,,0.00,Weather View 32 v70,2013-12-25 23:14:00,
2013-12-25 17:19:00,27.9,18.7,30.31,West,270,4.0,19.0,68,0.00,,,0.00,Weather View 32 v70,2013-12-25 23:19:00,
2013-12-25 17:25:00,27.9,18.7,30.30,West,270,1.0,15.0,68,0.00,,,0.00,Weather View 32 v70,2013-12-25 23:25:00,
2013-12-25 17:30:00,27.5,18.7,30.30,WSW,247,2.0,14.0,69,0.00,,,0.00,Weather View 32 v70,2013-12-25 23:30:00,
2013-12-25 17:35:00,27.1,18.3,30.30,WSW,247,2.0,11.0,69,0.00,,,0.00,Weather View 32 v70,2013-12-25 23:35:00,
2013-12-25 17:40:00,26.7,18.2,30.30,WSW,247,2.0,11.0,70,0.00,,,0.00,Weather View 32 v70,2013-12-25 23:40:00,
2013-12-25 17:45:00,26.3,18.2,30.30,WSW,247,1.0,9.0,71,0.00,,,0.00,Weather View 32 v70,2013-12-25 23:45:00,
2013-12-25 17:50:00,25.8,18.0,30.31,WSW,247,1.0,9.0,72,0.00,,,0.00,Weather View 32 v70,2013-12-25 23:50:00,
2013-12-25 17:55:00,25.3,17.5,30.31,WSW,247,2.0,7.0,72,0.00,,,0.00,Weather View 32 v70,2013-12-25 23:55:00,
2013-12-25 18:00:00,25.0,17.2,30.31,WSW,247,2.0,7.0,72,0.00,,,0.00,Weather View 32 v70,2013-12-26 00:00:00,
2013-12-25 18:05:00,24.9,17.5,30.31,WSW,247,2.0,7.0,73,0.00,,,0.00,Weather View 32 v70,2013-12-26 00:05:00,
2013-12-25 18:10:00,24.9,17.5,30.31,WSW,247,0.0,7.0,73,0.00,,,0.00,Weather View 32 v70,2013-12-26 00:10:00,
2013-12-25 18:15:00,24.9,17.5,30.31,WSW,247,0.0,7.0,73,0.00,,,0.00,Weather View 32 v70,2013-12-26 00:15:00,
2013-12-25 18:20:00,24.9,17.8,30.31,WSW,247,0.0,7.0,74,0.00,,,0.00,Weather View 32 v70,2013-12-26 00:20:00,
2013-12-25 18:25:00,24.7,17.6,30.31,WSW,247,1.0,5.0,74,0.00,,,0.00,Weather View 32 v70,2013-12-26 00:25:00,
2013-12-25 18:30:00,24.4,17.6,30.32,SW,225,1.0,4.0,75,0.00,,,0.00,Weather View 32 v70,2013-12-26 00:30:00,
2013-12-25 18:35:00,24.2,17.4,30.32,SW,225,1.0,4.0,75,0.00,,,0.00,Weather View 32 v70,2013-12-26 00:35:00,
2013-12-25 18:40:00,24.2,17.7,30.31,SW,225,1.0,4.0,76,0.00,,,0.00,Weather View 32 v70,2013-12-26 00:40:00,
2013-12-25 18:45:00,24.3,17.8,30.32,SW,225,1.0,4.0,76,0.00,,,0.00,Weather View 32 v70,2013-12-26 00:45:00,
2013-12-25 18:50:00,24.2,17.7,30.32,SW,225,0.0,2.0,76,0.00,,,0.00,Weather View 32 v70,2013-12-26 00:50:00,
2013-12-25 18:55:00,24.1,17.6,30.32,SW,225,1.0,2.0,76,0.00,,,0.00,Weather View 32 v70,2013-12-26 00:55:00,
2013-12-25 19:00:00,24.1,17.9,30.32,SSW,202,2.0,2.0,77,0.00,,,0.00,Weather View 32 v70,2013-12-26 01:00:00,
2013-12-25 19:05:00,24.0,17.8,30.32,SSW,202,0.0,2.0,77,0.00,,,0.00,Weather View 32 v70,2013-12-26 01:05:00,
2013-12-25 19:10:00,23.7,17.5,30.31,South,180,1.0,2.0,77,0.00,,,0.00,Weather View 32 v70,2013-12-26 01:10:00,
2013-12-25 19:15:00,23.5,17.7,30.31,South,180,2.0,2.0,78,0.00,,,0.00,Weather View 32 v70,2013-12-26 01:15:00,
2013-12-25 19:20:00,23.5,17.9,30.31,South,180,1.0,2.0,79,0.00,,,0.00,Weather View 32 v70,2013-12-26 01:20:00,
2013-12-25 19:25:00,23.6,18.0,30.31,South,180,0.0,2.0,79,0.00,,,0.00,Weather View 32 v70,2013-12-26 01:25:00,
2013-12-25 19:30:00,23.8,17.9,30.31,South,180,2.0,2.0,78,0.00,,,0.00,Weather View 32 v70,2013-12-26 01:30:00,
2013-12-25 19:35:00,23.9,18.0,30.31,SSE,157,1.0,2.0,78,0.00,,,0.00,Weather View 32 v70,2013-12-26 01:35:00,
2013-12-25 19:40:00,23.6,17.8,30.30,SE,135,2.0,2.0,78,0.00,,,0.00,Weather View 32 v70,2013-12-26 01:40:00,
2013-12-25 19:45:00,22.9,17.1,30.30,SE,135,2.0,3.0,78,0.00,,,0.00,Weather View 32 v70,2013-12-26 01:45:00,
2013-12-25 19:50:00,22.4,17.2,30.30,SE,135,2.0,3.0,80,0.00,,,0.00,Weather View 32 v70,2013-12-26 01:50:00,
2013-12-25 19:55:00,21.9,17.0,30.30,SE,135,2.0,4.0,81,0.00,,,0.00,Weather View 32 v70,2013-12-26 01:55:00,
2013-12-25 20:00:00,21.8,16.9,30.30,SE,135,2.0,4.0,81,0.00,,,0.00,Weather View 32 v70,2013-12-26 02:00:00,
2013-12-25 20:05:00,21.5,16.6,30.30,SE,135,2.0,4.0,81,0.00,,,0.00,Weather View 32 v70,2013-12-26 02:05:00,
2013-12-25 20:10:00,21.2,16.6,30.29,SE,135,2.0,4.0,82,0.00,,,0.00,Weather View 32 v70,2013-12-26 02:10:00,
2013-12-25 20:15:00,20.9,16.3,30.30,SE,135,2.0,4.0,82,0.00,,,0.00,Weather View 32 v70,2013-12-26 02:15:00,
2013-12-25 20:20:00,20.7,16.4,30.30,SE,135,2.0,4.0,83,0.00,,,0.00,Weather View 32 v70,2013-12-26 02:20:00,
2013-12-25 20:25:00,20.6,16.3,30.30,SE,135,4.0,4.0,83,0.00,,,0.00,Weather View 32 v70,2013-12-26 02:25:00,
2013-12-25 20:30:00,20.3,16.2,30.29,ESE,112,3.0,6.0,84,0.00,,,0.00,Weather View 32 v70,2013-12-26 02:30:00,
2013-12-25 20:35:00,20.2,16.1,30.29,SE,135,2.0,6.0,84,0.00,,,0.00,Weather View 32 v70,2013-12-26 02:35:00,
2013-12-25 20:40:00,20.2,16.1,30.29,SE,135,3.0,6.0,84,0.00,,,0.00,Weather View 32 v70,2013-12-26 02:40:00,
2013-12-25 20:45:00,20.0,16.2,30.29,SE,135,2.0,6.0,85,0.00,,,0.00,Weather View 32 v70,2013-12-26 02:45:00,
2013-12-25 20:50:00,19.9,16.1,30.29,SE,135,2.0,6.0,85,0.00,,,0.00,Weather View 32 v70,2013-12-26 02:50:00,
2013-12-25 20:55:00,19.8,16.3,30.29,SE,135,1.0,6.0,86,0.00,,,0.00,Weather View 32 v70,2013-12-26 02:55:00,
2013-12-25 21:00:00,19.6,16.1,30.29,SE,135,2.0,6.0,86,0.00,,,0.00,Weather View 32 v70,2013-12-26 03:00:00,
2013-12-25 21:05:00,19.5,16.0,30.28,SE,135,2.0,6.0,86,0.00,,,0.00,Weather View 32 v70,2013-12-26 03:05:00,
2013-12-25 21:10:00,19.3,16.1,30.28,ESE,112,4.0,6.0,87,0.00,,,0.00,Weather View 32 v70,2013-12-26 03:10:00,
2013-12-25 21:15:00,19.2,16.0,30.28,ESE,112,2.0,6.0,87,0.00,,,0.00,Weather View 32 v70,2013-12-26 03:15:00,
2013-12-25 21:20:00,19.5,16.3,30.27,ESE,112,3.0,6.0,87,0.00,,,0.00,Weather View 32 v70,2013-12-26 03:20:00,
2013-12-25 21:25:00,19.4,16.2,30.27,ESE,112,3.0,7.0,87,0.00,,,0.00,Weather View 32 v70,2013-12-26 03:25:00,
2013-12-25 21:30:00,19.2,16.0,30.26,ESE,112,3.0,7.0,87,0.00,,,0.00,Weather View 32 v70,2013-12-26 03:30:00,
2013-12-25 21:35:00,18.9,15.9,30.26,SE,135,2.0,7.0,88,0.00,,,0.00,Weather View 32 v70,2013-12-26 03:35:00,
2013-12-25 21:40:00,18.8,15.8,30.26,SE,135,1.0,7.0,88,0.00,,,0.00,Weather View 32 v70,2013-12-26 03:40:00,
2013-12-25 21:45:00,18.8,16.1,30.26,SE,135,1.0,7.0,89,0.00,,,0.00,Weather View 32 v70,2013-12-26 03:45:00,
2013-12-25 21:50:00,18.7,16.0,30.27,SE,135,2.0,7.0,89,0.00,,,0.00,Weather View 32 v70,2013-12-26 03:50:00,
2013-12-25 21:55:00,18.6,16.2,30.27,SE,135,2.0,7.0,90,0.00,,,0.00,Weather View 32 v70,2013-12-26 03:55:00,
2013-12-25 22:00:00,18.6,16.2,30.26,ESE,112,1.0,7.0,90,0.00,,,0.00,Weather View 32 v70,2013-12-26 04:00:00,
2013-12-25 22:05:00,18.5,16.1,30.26,ESE,112,1.0,7.0,90,0.00,,,0.00,Weather View 32 v70,2013-12-26 04:05:00,
2013-12-25 22:10:00,18.5,16.1,30.26,ESE,112,1.0,7.0,90,0.00,,,0.00,Weather View 32 v70,2013-12-26 04:10:00,
2013-12-25 22:15:00,18.3,15.9,30.26,ESE,112,2.0,7.0,90,0.00,,,0.00,Weather View 32 v70,2013-12-26 04:15:00,
2013-12-25 22:20:00,18.1,15.7,30.26,ESE,112,2.0,7.0,90,0.00,,,0.00,Weather View 32 v70,2013-12-26 04:20:00,
2013-12-25 22:25:00,18.1,15.9,30.26,ESE,112,2.0,4.0,91,0.00,,,0.00,Weather View 32 v70,2013-12-26 04:25:00,
2013-12-25 22:30:00,18.2,16.0,30.26,ESE,112,1.0,4.0,91,0.00,,,0.00,Weather View 32 v70,2013-12-26 04:30:00,
2013-12-25 22:35:00,18.1,15.9,30.26,ESE,112,2.0,4.0,91,0.00,,,0.00,Weather View 32 v70,2013-12-26 04:35:00,
2013-12-25 22:40:00,18.0,15.8,30.26,ESE,112,1.0,4.0,91,0.00,,,0.00,Weather View 32 v70,2013-12-26 04:40:00,
2013-12-25 22:45:00,17.9,15.5,30.26,ESE,112,1.0,4.0,90,0.00,,,0.00,Weather View 32 v70,2013-12-26 04:45:00,
2013-12-25 22:50:00,17.9,15.5,30.26,ESE,112,1.0,4.0,90,0.00,,,0.00,Weather View 32 v70,2013-12-26 04:50:00,
2013-12-25 22:55:00,18.0,16.1,30.26,ESE,112,3.0,4.0,92,0.00,,,0.00,Weather View 32 v70,2013-12-26 04:55:00,
2013-12-25 23:00:00,18.3,16.1,30.26,ESE,112,2.0,4.0,91,0.00,,,0.00,Weather View 32 v70,2013-12-26 05:00:00,
2013-12-25 23:01:00,18.3,16.1,30.26,ESE,112,4.0,4.0,91,0.00,,,0.00,Weather View 32 v70,2013-12-26 05:01:00,
2013-12-25 23:02:00,18.4,16.2,30.26,ESE,112,4.0,5.0,91,0.00,,,0.00,Weather View 32 v70,2013-12-26 05:02:00,
2013-12-25 23:07:00,18.5,16.3,30.25,ESE,112,3.0,5.0,91,0.00,,,0.00,Weather View 32 v70,2013-12-26 05:07:00,
2013-12-25 23:12:00,18.9,16.7,30.25,ESE,112,2.0,5.0,91,0.00,,,0.00,Weather View 32 v70,2013-12-26 05:12:00,
2013-12-25 23:17:00,19.0,16.8,30.25,ESE,112,3.0,5.0,91,0.00,,,0.00,Weather View 32 v70,2013-12-26 05:17:00,
2013-12-25 23:22:00,19.3,17.1,30.25,SE,135,3.0,5.0,91,0.00,,,0.00,Weather View 32 v70,2013-12-26 05:22:00,
2013-12-25 23:27:00,19.5,17.3,30.24,ESE,112,3.0,6.0,91,0.00,,,0.00,Weather View 32 v70,2013-12-26 05:27:00,
2013-12-25 23:32:00,19.7,17.5,30.24,SE,135,4.0,6.0,91,0.00,,,0.00,Weather View 32 v70,2013-12-26 05:32:00,
2013-12-25 23:37:00,19.7,17.5,30.24,ESE,112,1.0,6.0,91,0.00,,,0.00,Weather View 32 v70,2013-12-26 05:37:00,
2013-12-25 23:42:00,19.8,17.6,30.24,ESE,112,3.0,6.0,91,0.00,,,0.00,Weather View 32 v70,2013-12-26 05:42:00,
2013-12-25 23:47:00,19.9,17.4,30.24,ESE,112,2.0,6.0,90,0.00,,,0.00,Weather View 32 v70,2013-12-26 05:47:00,
2013-12-25 23:52:00,19.9,17.4,30.24,ESE,112,3.0,6.0,90,0.00,,,0.00,Weather View 32 v70,2013-12-26 05:52:00,
2013-12-25 23:57:00,20.1,17.4,30.24,ESE,112,4.0,6.0,89,0.00,,,0.00,Weather View 32 v70,2013-12-26 05:57:00,